createdAt,value
2022-09-14T00:00:45.298Z,12.70
2022-09-14T00:03:12.068Z,12.62
2022-09-14T00:05:38.841Z,12.52
2022-09-14T00:08:05.482Z,12.42
2022-09-14T00:10:32.382Z,12.43
2022-09-14T00:13:00.618Z,12.47
2022-09-14T00:15:27.307Z,12.48
2022-09-14T00:17:53.992Z,12.59
2022-09-14T00:20:20.759Z,12.51
2022-09-14T00:22:47.389Z,12.48
2022-09-14T00:25:14.048Z,12.52
2022-09-14T00:27:40.681Z,12.51
2022-09-14T00:30:07.868Z,12.37
2022-09-14T00:32:34.514Z,12.40
2022-09-14T00:35:01.223Z,12.33
2022-09-14T00:37:27.969Z,12.32
2022-09-14T00:39:54.955Z,12.41
2022-09-14T00:42:21.668Z,12.33
2022-09-14T00:44:48.275Z,12.28
2022-09-14T00:47:16.940Z,12.11
2022-09-14T00:49:44.161Z,11.97
2022-09-14T00:52:23.201Z,12.01
2022-09-14T00:54:52.814Z,12.11
2022-09-14T00:57:20.569Z,12.16
2022-09-14T00:59:49.920Z,12.06
2022-09-14T01:02:17.047Z,11.95
2022-09-14T01:04:44.242Z,12.02
2022-09-14T01:07:35.977Z,12.06
2022-09-14T01:10:02.590Z,12.08
2022-09-14T01:12:38.301Z,12.08
2022-09-14T01:15:17.164Z,12.05
2022-09-14T01:17:55.910Z,12.06
2022-09-14T01:20:55.259Z,12.06
2022-09-14T01:23:29.996Z,12.00
2022-09-14T01:26:16.902Z,11.94
2022-09-14T01:28:57.369Z,11.83
2022-09-14T01:31:47.203Z,11.74
2022-09-14T01:34:22.265Z,11.82
2022-09-14T01:36:53.810Z,11.88
2022-09-14T01:39:21.974Z,11.92
2022-09-14T01:41:50.186Z,11.93
2022-09-14T01:44:21.955Z,11.96
2022-09-14T01:46:58.094Z,11.87
2022-09-14T01:49:32.295Z,11.82
2022-09-14T01:52:06.468Z,11.77
2022-09-14T01:54:52.998Z,11.62
2022-09-14T01:57:44.157Z,11.70
2022-09-14T02:00:16.587Z,11.60
2022-09-14T02:02:57.330Z,11.47
2022-09-14T02:05:34.587Z,11.55
2022-09-14T02:08:01.373Z,11.63
2022-09-14T02:10:28.617Z,11.74
2022-09-14T02:12:56.925Z,11.67
2022-09-14T02:15:23.956Z,11.69
2022-09-14T02:17:50.607Z,11.58
2022-09-14T02:20:41.258Z,11.56
2022-09-14T02:23:08.383Z,11.74
2022-09-14T02:25:36.481Z,11.65
2022-09-14T02:28:04.884Z,11.66
2022-09-14T02:30:37.569Z,11.74
2022-09-14T02:33:29.384Z,11.71
2022-09-14T02:35:59.362Z,11.72
2022-09-14T02:38:54.616Z,11.55
2022-09-14T02:41:32.673Z,11.52
2022-09-14T02:44:05.205Z,11.62
2022-09-14T02:46:48.215Z,11.60
2022-09-14T02:49:21.489Z,11.51
2022-09-14T02:52:17.502Z,11.46
2022-09-14T02:54:50.663Z,11.54
2022-09-14T02:57:17.290Z,11.59
2022-09-14T02:59:43.994Z,11.56
2022-09-14T03:02:10.719Z,11.72
2022-09-14T03:04:37.484Z,11.54
2022-09-14T03:07:04.161Z,11.43
2022-09-14T03:09:30.841Z,11.39
2022-09-14T03:11:57.469Z,11.39
2022-09-14T03:14:24.113Z,11.33
2022-09-14T03:16:50.819Z,11.31
2022-09-14T03:19:17.717Z,11.45
2022-09-14T03:21:44.401Z,11.45
2022-09-14T03:24:11.162Z,11.43
2022-09-14T03:26:38.742Z,11.25
2022-09-14T03:29:06.468Z,11.21
2022-09-14T03:31:33.899Z,11.23
2022-09-14T03:34:01.715Z,11.30
2022-09-14T03:36:30.118Z,11.39
2022-09-14T03:38:58.317Z,11.25
2022-09-14T03:41:25.337Z,11.23
2022-09-14T03:43:52.251Z,11.42
2022-09-14T03:46:21.588Z,11.22
2022-09-14T03:48:49.173Z,11.23
2022-09-14T03:51:16.104Z,11.15
2022-09-14T03:53:44.916Z,11.06
2022-09-14T03:56:17.084Z,11.28
2022-09-14T03:58:45.084Z,11.12
2022-09-14T04:01:14.694Z,11.12
2022-09-14T04:03:41.718Z,11.19
2022-09-14T04:06:09.365Z,11.07
2022-09-14T04:08:38.390Z,11.09
2022-09-14T04:11:17.352Z,11.12
2022-09-14T04:13:44.587Z,11.02
2022-09-14T04:16:11.993Z,10.99
2022-09-14T04:18:38.893Z,10.99
2022-09-14T04:21:13.241Z,11.13
2022-09-14T04:24:03.023Z,10.97
2022-09-14T04:26:28.137Z,11.06
2022-09-14T04:28:58.529Z,11.02
2022-09-14T04:31:25.472Z,11.11
2022-09-14T04:33:53.831Z,11.12
2022-09-14T04:36:22.666Z,10.92
2022-09-14T04:38:53.111Z,11.00
2022-09-14T04:41:21.221Z,10.95
2022-09-14T04:43:50.535Z,10.89
2022-09-14T04:46:19.792Z,10.83
2022-09-14T04:48:46.529Z,10.91
2022-09-14T04:51:18.762Z,11.04
2022-09-14T04:53:47.340Z,11.08
2022-09-14T04:56:14.662Z,11.00
2022-09-14T04:58:51.250Z,11.12
2022-09-14T05:01:20.973Z,11.22
2022-09-14T05:03:48.331Z,11.08
2022-09-14T05:06:17.045Z,11.03
2022-09-14T05:08:44.293Z,11.07
2022-09-14T05:11:14.449Z,10.99
2022-09-14T05:13:42.102Z,10.91
2022-09-14T05:16:15.202Z,11.04
2022-09-14T05:18:42.278Z,11.01
2022-09-14T05:21:10.725Z,10.97
2022-09-14T05:23:37.981Z,11.15
2022-09-14T05:26:05.688Z,11.11
2022-09-14T05:28:33.518Z,11.12
2022-09-14T05:31:04.895Z,11.19
2022-09-14T05:33:31.666Z,11.05
2022-09-14T05:36:02.716Z,10.91
2022-09-14T05:38:30.627Z,11.20
2022-09-14T05:40:57.644Z,11.20
2022-09-14T05:43:24.477Z,11.19
2022-09-14T05:45:51.373Z,11.16
2022-09-14T05:48:18.401Z,11.24
2022-09-14T05:50:45.175Z,11.36
2022-09-14T05:53:11.816Z,11.40
2022-09-14T05:55:38.471Z,11.32
2022-09-14T05:58:07.647Z,11.39
2022-09-14T06:00:34.305Z,11.38
2022-09-14T06:03:00.964Z,11.54
2022-09-14T06:05:28.317Z,11.61
2022-09-14T06:07:55.102Z,11.60
2022-09-14T06:10:22.151Z,11.57
2022-09-14T06:12:53.460Z,11.51
2022-09-14T06:15:24.739Z,11.61
2022-09-14T06:17:51.522Z,11.71
2022-09-14T06:20:18.981Z,11.87
2022-09-14T06:22:48.095Z,11.89
2022-09-14T06:25:14.877Z,12.11
2022-09-14T06:27:41.547Z,12.23
2022-09-14T06:30:08.986Z,12.38
2022-09-14T06:32:35.740Z,12.52
2022-09-14T06:35:11.768Z,12.27
2022-09-14T06:37:42.521Z,12.22
2022-09-14T06:40:12.270Z,12.47
2022-09-14T06:42:41.508Z,12.57
2022-09-14T06:45:14.635Z,12.65
2022-09-14T06:47:49.932Z,12.68
2022-09-14T06:50:17.680Z,12.74
2022-09-14T06:52:44.722Z,12.74
2022-09-14T06:55:12.032Z,12.73
2022-09-14T06:57:42.785Z,12.86
2022-09-14T07:00:10.518Z,13.13
2022-09-14T07:02:37.260Z,13.19
2022-09-14T07:05:04.309Z,13.30
2022-09-14T07:07:31.097Z,13.21
2022-09-14T07:09:57.954Z,13.21
2022-09-14T07:12:28.158Z,13.21
2022-09-14T07:14:54.834Z,13.23
2022-09-14T07:17:21.591Z,13.24
2022-09-14T07:19:48.299Z,13.30
2022-09-14T07:22:15.111Z,13.54
2022-09-14T07:24:41.871Z,13.58
2022-09-14T07:27:08.912Z,13.61
2022-09-14T07:29:35.794Z,13.55
2022-09-14T07:32:02.645Z,13.75
2022-09-14T07:34:29.277Z,13.58
2022-09-14T07:36:55.892Z,13.57
2022-09-14T07:39:22.524Z,13.84
2022-09-14T07:41:49.558Z,13.83
2022-09-14T07:44:17.539Z,13.99
2022-09-14T07:46:45.559Z,14.16
2022-09-14T07:49:12.822Z,14.32
2022-09-14T07:51:40.257Z,14.35
2022-09-14T07:54:08.714Z,14.28
2022-09-14T07:56:37.544Z,14.41
2022-09-14T07:59:33.367Z,14.45
2022-09-14T08:01:51.815Z,14.42
2022-09-14T08:04:18.718Z,14.40
2022-09-14T08:06:45.304Z,14.19
2022-09-14T08:09:12.329Z,14.26
2022-09-14T08:11:39.106Z,14.39
2022-09-14T08:14:09.951Z,14.40
2022-09-14T08:16:38.691Z,14.37
2022-09-14T08:19:08.354Z,14.34
2022-09-14T08:21:35.834Z,14.40
2022-09-14T08:24:04.401Z,14.50
2022-09-14T08:26:31.482Z,14.58
2022-09-14T08:29:00.551Z,14.76
2022-09-14T08:31:28.273Z,15.00
2022-09-14T08:34:00.368Z,15.26
2022-09-14T08:36:31.287Z,14.99
2022-09-14T08:38:58.259Z,15.05
2022-09-14T08:41:51.354Z,15.24
2022-09-14T08:44:25.899Z,15.56
2022-09-14T08:47:03.941Z,15.44
2022-09-14T08:49:39.115Z,15.46
2022-09-14T08:52:23.041Z,15.60
2022-09-14T08:54:53.288Z,15.71
2022-09-14T08:57:26.230Z,15.58
2022-09-14T09:00:15.531Z,15.56
2022-09-14T09:03:13.809Z,15.62
2022-09-14T09:05:49.406Z,15.62
2022-09-14T09:08:30.571Z,15.42
2022-09-14T09:10:59.242Z,15.38
2022-09-14T09:13:30.470Z,15.52
2022-09-14T09:16:02.806Z,15.34
2022-09-14T09:18:48.350Z,15.40
2022-09-14T09:21:23.033Z,15.71
2022-09-14T09:23:49.868Z,15.80
2022-09-14T09:26:25.736Z,15.61
2022-09-14T09:28:54.307Z,15.55
2022-09-14T09:31:33.307Z,15.64
2022-09-14T09:34:27.237Z,15.66
2022-09-14T09:37:09.568Z,15.66
2022-09-14T09:39:36.511Z,16.04
2022-09-14T09:42:08.455Z,16.03
2022-09-14T09:45:04.280Z,15.98
2022-09-14T09:47:40.386Z,15.90
2022-09-14T09:50:18.481Z,15.76
2022-09-14T09:52:59.100Z,15.94
2022-09-14T09:55:33.596Z,16.18
2022-09-14T09:58:21.826Z,16.17
2022-09-14T10:00:57.268Z,16.25
2022-09-14T10:03:36.182Z,16.07
2022-09-14T10:06:05.807Z,16.36
2022-09-14T10:08:35.072Z,16.27
2022-09-14T10:11:03.232Z,16.03
2022-09-14T10:13:38.224Z,16.37
2022-09-14T10:16:12.529Z,16.60
2022-09-14T10:18:48.681Z,16.68
2022-09-14T10:21:17.764Z,16.86
2022-09-14T10:23:44.939Z,16.80
2022-09-14T10:26:14.781Z,17.06
2022-09-14T10:28:46.547Z,17.13
2022-09-14T10:31:17.912Z,17.08
2022-09-14T10:33:52.029Z,17.28
2022-09-14T10:36:43.899Z,16.87
2022-09-14T10:39:10.706Z,17.09
2022-09-14T10:41:53.094Z,17.07
2022-09-14T10:44:28.908Z,16.81
2022-09-14T10:47:19.907Z,16.90
2022-09-14T10:50:08.729Z,16.85
2022-09-14T10:53:17.336Z,16.97
2022-09-14T10:56:01.237Z,16.59
2022-09-14T10:58:40.183Z,16.58
2022-09-14T11:01:19.571Z,16.57
2022-09-14T11:04:14.351Z,16.55
2022-09-14T11:06:57.950Z,16.42
2022-09-14T11:09:32.389Z,16.51
2022-09-14T11:12:09.059Z,16.54
2022-09-14T11:14:57.386Z,16.81
2022-09-14T11:17:49.919Z,17.26
2022-09-14T11:20:30.699Z,17.20
2022-09-14T11:23:07.582Z,17.02
2022-09-14T11:25:45.997Z,17.17
2022-09-14T11:28:25.692Z,17.36
2022-09-14T11:31:06.698Z,17.50
2022-09-14T11:33:38.332Z,17.36
2022-09-14T11:36:10.111Z,17.55
2022-09-14T11:38:44.482Z,17.48
2022-09-14T11:41:58.686Z,17.31
2022-09-14T11:44:32.284Z,17.58
2022-09-14T11:47:05.597Z,17.90
2022-09-14T11:49:58.788Z,18.02
2022-09-14T11:52:28.289Z,17.89
2022-09-14T11:54:55.136Z,17.71
2022-09-14T11:57:40.145Z,17.66
2022-09-14T12:00:23.218Z,17.60
2022-09-14T12:03:01.293Z,17.56
2022-09-14T12:05:30.774Z,17.42
2022-09-14T12:08:02.146Z,17.40
2022-09-14T12:10:29.767Z,17.72
2022-09-14T12:13:08.655Z,17.64
2022-09-14T12:15:39.559Z,17.83
2022-09-14T12:18:06.202Z,18.19
2022-09-14T12:20:40.432Z,17.68
2022-09-14T12:23:18.591Z,17.23
2022-09-14T12:26:01.642Z,17.22
2022-09-14T12:28:40.683Z,17.36
2022-09-14T12:31:36.309Z,17.26
2022-09-14T12:34:14.355Z,17.17
2022-09-14T12:36:40.936Z,16.97
2022-09-14T12:39:20.595Z,17.06
2022-09-14T12:41:47.763Z,16.99
2022-09-14T12:44:35.829Z,17.23
2022-09-14T12:47:38.167Z,17.25
2022-09-14T12:50:20.259Z,17.21
2022-09-14T12:52:58.994Z,17.11
2022-09-14T12:55:43.231Z,17.38
2022-09-14T12:58:23.355Z,17.74
2022-09-14T13:01:00.476Z,17.84
2022-09-14T13:03:50.569Z,17.98
2022-09-14T13:06:18.167Z,17.83
2022-09-14T13:08:57.757Z,17.82
2022-09-14T13:11:30.306Z,18.30
2022-09-14T13:13:57.443Z,18.58
2022-09-14T13:16:37.495Z,18.68
2022-09-14T13:19:08.075Z,18.86
2022-09-14T13:21:46.728Z,18.80
2022-09-14T13:24:22.715Z,18.91
2022-09-14T13:26:49.847Z,18.62
2022-09-14T13:29:16.580Z,18.20
2022-09-14T13:31:44.988Z,18.34
2022-09-14T13:34:43.320Z,18.22
2022-09-14T13:37:13.691Z,18.15
2022-09-14T13:39:43.455Z,18.08
2022-09-14T13:42:13.490Z,17.78
2022-09-14T13:44:49.186Z,17.73
2022-09-14T13:47:24.425Z,17.36
2022-09-14T13:49:53.363Z,17.58
2022-09-14T13:52:25.932Z,17.90
2022-09-14T13:55:24.383Z,17.91
2022-09-14T13:58:09.390Z,17.50
2022-09-14T14:01:06.178Z,17.59
2022-09-14T14:04:02.375Z,17.70
2022-09-14T14:06:38.332Z,17.40
2022-09-14T14:09:07.342Z,17.49
2022-09-14T14:11:42.815Z,17.52
2022-09-14T14:14:21.573Z,17.51
2022-09-14T14:17:13.411Z,17.25
2022-09-14T14:19:40.809Z,17.12
2022-09-14T14:22:30.304Z,16.96
2022-09-14T14:25:14.512Z,17.14
2022-09-14T14:27:57.720Z,17.38
2022-09-14T14:30:38.190Z,17.40
2022-09-14T14:33:06.828Z,17.29
2022-09-14T14:35:33.741Z,17.07
2022-09-14T14:38:00.450Z,17.17
2022-09-14T14:40:33.420Z,17.28
2022-09-14T14:43:02.890Z,17.28
2022-09-14T14:45:35.380Z,17.14
2022-09-14T14:48:03.533Z,17.13
2022-09-14T14:50:34.479Z,16.83
2022-09-14T14:53:01.928Z,16.87
2022-09-14T14:55:31.321Z,16.79
2022-09-14T14:58:01.103Z,16.77
2022-09-14T15:00:30.361Z,16.89
2022-09-14T15:02:57.061Z,16.96
2022-09-14T15:05:24.851Z,16.86
2022-09-14T15:07:56.108Z,16.93
2022-09-14T15:10:24.835Z,16.90
2022-09-14T15:12:52.505Z,16.80
2022-09-14T15:15:21.751Z,16.74
2022-09-14T15:17:48.416Z,16.82
2022-09-14T15:20:15.540Z,16.96
2022-09-14T15:22:42.864Z,16.91
2022-09-14T15:25:11.056Z,16.76
2022-09-14T15:27:37.892Z,16.67
2022-09-14T15:30:06.031Z,16.58
2022-09-14T15:32:32.651Z,16.48
2022-09-14T15:34:59.337Z,16.63
2022-09-14T15:37:26.148Z,16.60
2022-09-14T15:39:52.950Z,16.42
2022-09-14T15:42:20.218Z,16.51
2022-09-14T15:44:47.187Z,16.50
2022-09-14T15:47:14.812Z,16.51
2022-09-14T15:49:42.581Z,16.48
2022-09-14T15:52:10.992Z,16.62
2022-09-14T15:54:38.858Z,16.47
2022-09-14T15:57:08.175Z,16.60
2022-09-14T15:59:35.318Z,16.61
2022-09-14T16:02:02.293Z,16.57
2022-09-14T16:04:30.584Z,16.42
2022-09-14T16:06:57.233Z,16.48
2022-09-14T16:09:24.020Z,16.21
2022-09-14T16:11:50.774Z,16.21
2022-09-14T16:14:17.518Z,16.15
2022-09-14T16:16:44.597Z,16.15
2022-09-14T16:19:13.668Z,16.17
2022-09-14T16:21:44.228Z,16.15
2022-09-14T16:24:20.012Z,16.19
2022-09-14T16:26:47.318Z,16.36
2022-09-14T16:29:15.784Z,16.38
2022-09-14T16:31:44.643Z,16.26
2022-09-14T16:34:18.829Z,16.28
2022-09-14T16:36:46.347Z,16.01
2022-09-14T16:39:18.251Z,16.03
2022-09-14T16:41:45.337Z,16.03
2022-09-14T16:44:16.725Z,16.01
2022-09-14T16:46:44.294Z,15.98
2022-09-14T16:49:13.802Z,15.96
2022-09-14T16:51:40.941Z,15.97
2022-09-14T16:54:08.247Z,15.96
2022-09-14T16:56:37.191Z,15.96
2022-09-14T16:59:05.119Z,15.93
2022-09-14T17:01:37.999Z,15.89
2022-09-14T17:04:13.404Z,15.73
2022-09-14T17:06:44.836Z,15.78
2022-09-14T17:09:17.547Z,15.81
2022-09-14T17:11:45.388Z,15.81
2022-09-14T17:14:20.124Z,15.73
2022-09-14T17:16:53.655Z,15.62
2022-09-14T17:19:27.282Z,15.57
2022-09-14T17:21:54.979Z,15.63
2022-09-14T17:24:22.643Z,15.67
2022-09-14T17:26:51.201Z,15.70
2022-09-14T17:29:21.782Z,15.68
2022-09-14T17:31:50.774Z,15.60
2022-09-14T17:34:23.016Z,15.62
2022-09-14T17:36:53.238Z,15.59
2022-09-14T17:39:26.375Z,15.56
2022-09-14T17:42:00.895Z,15.52
2022-09-14T17:44:33.382Z,15.47
2022-09-14T17:47:00.864Z,15.47
2022-09-14T17:49:28.105Z,15.43
2022-09-14T17:51:55.267Z,15.41
2022-09-14T17:54:22.135Z,15.41
2022-09-14T17:56:51.585Z,15.42
2022-09-14T17:59:24.454Z,15.43
2022-09-14T18:01:57.705Z,15.44
2022-09-14T18:04:27.208Z,15.43
2022-09-14T18:06:59.389Z,15.46
2022-09-14T18:09:26.470Z,15.44
2022-09-14T18:11:56.164Z,15.44
2022-09-14T18:14:23.674Z,15.43
2022-09-14T18:16:50.389Z,15.42
2022-09-14T18:19:17.029Z,15.37
2022-09-14T18:21:45.123Z,15.38
